createdAt,value
2018-05-13T00:00:11.711Z,50.85
2018-05-13T00:02:39.994Z,51.90
2018-05-13T00:05:09.205Z,52.56
2018-05-13T00:07:37.502Z,53.24
2018-05-13T00:10:05.790Z,53.53
2018-05-13T00:12:34.830Z,52.83
2018-05-13T00:15:03.165Z,53.71
2018-05-13T00:17:31.399Z,54.29
2018-05-13T00:19:59.652Z,54.50
2018-05-13T00:22:28.032Z,54.37
2018-05-13T00:24:56.327Z,54.48
2018-05-13T00:27:24.642Z,54.08
2018-05-13T00:29:53.840Z,54.90
2018-05-13T00:32:22.107Z,54.51
2018-05-13T00:34:50.594Z,54.64
2018-05-13T00:37:18.977Z,55.23
2018-05-13T00:39:47.261Z,55.51
2018-05-13T00:42:15.569Z,55.96
2018-05-13T00:44:43.903Z,55.87
2018-05-13T00:47:12.939Z,55.95
2018-05-13T00:49:41.248Z,56.29
2018-05-13T00:52:09.799Z,56.71
2018-05-13T00:54:55.819Z,56.33
2018-05-13T00:57:24.940Z,56.86
2018-05-13T00:59:53.214Z,57.24
2018-05-13T01:02:22.270Z,57.30
2018-05-13T01:04:50.571Z,57.54
2018-05-13T01:07:18.821Z,57.15
2018-05-13T01:09:47.105Z,57.72
2018-05-13T01:12:15.377Z,57.03
2018-05-13T01:14:43.674Z,56.73
2018-05-13T01:17:12.698Z,57.45
2018-05-13T01:19:41.004Z,57.31
2018-05-13T01:22:09.260Z,57.38
2018-05-13T01:24:37.546Z,56.98
2018-05-13T01:27:06.568Z,56.28
2018-05-13T01:29:34.812Z,56.18
2018-05-13T01:32:03.092Z,53.73
2018-05-13T01:34:31.362Z,54.52
2018-05-13T01:36:59.608Z,54.56
2018-05-13T01:39:28.659Z,54.53
2018-05-13T01:41:56.921Z,53.08
2018-05-13T01:44:25.929Z,53.92
2018-05-13T01:46:54.222Z,52.26
2018-05-13T01:49:22.512Z,50.85
2018-05-13T01:51:50.808Z,50.83
2018-05-13T01:54:19.087Z,50.99
2018-05-13T01:56:48.091Z,50.09
2018-05-13T01:59:16.367Z,50.01
2018-05-13T02:01:45.403Z,50.44
2018-05-13T02:04:13.682Z,49.29
2018-05-13T02:06:42.718Z,49.01
2018-05-13T02:09:10.997Z,49.07
2018-05-13T02:11:39.294Z,49.19
2018-05-13T02:14:07.539Z,49.23
2018-05-13T02:16:36.594Z,49.02
2018-05-13T02:19:04.844Z,49.58
2018-05-13T02:21:33.870Z,49.68
2018-05-13T02:24:02.187Z,49.01
2018-05-13T02:26:31.468Z,48.96
2018-05-13T02:29:00.495Z,48.63
2018-05-13T02:31:28.765Z,49.70
2018-05-13T02:33:57.787Z,49.32
2018-05-13T02:36:26.052Z,49.56
2018-05-13T02:38:55.126Z,49.34
2018-05-13T02:41:23.455Z,49.17
2018-05-13T02:43:52.544Z,48.95
2018-05-13T02:46:20.814Z,49.35
2018-05-13T02:48:49.071Z,49.54
2018-05-13T02:51:17.336Z,49.68
2018-05-13T02:53:46.374Z,49.46
2018-05-13T02:56:14.623Z,50.15
2018-05-13T02:58:43.663Z,50.11
2018-05-13T03:01:11.939Z,49.92
2018-05-13T03:03:40.951Z,50.29
2018-05-13T03:06:09.250Z,50.24
2018-05-13T03:08:37.646Z,50.50
2018-05-13T03:11:05.897Z,50.64
2018-05-13T03:13:34.179Z,50.70
2018-05-13T03:16:02.454Z,50.77
2018-05-13T03:18:30.703Z,50.79
2018-05-13T03:20:58.965Z,50.96
2018-05-13T03:23:28.202Z,51.30
2018-05-13T03:25:56.508Z,51.63
2018-05-13T03:28:24.858Z,51.77
2018-05-13T03:30:54.074Z,51.94
2018-05-13T03:33:24.841Z,52.21
2018-05-13T03:35:53.219Z,52.39
2018-05-13T03:38:26.542Z,52.11
2018-05-13T03:40:54.879Z,52.30
2018-05-13T03:43:23.481Z,52.52
2018-05-13T03:45:52.282Z,52.87
2018-05-13T03:48:20.883Z,52.87
2018-05-13T03:50:49.307Z,53.13
2018-05-13T03:53:18.647Z,53.60
2018-05-13T03:55:46.978Z,53.85
2018-05-13T03:58:15.284Z,54.31
2018-05-13T04:00:43.527Z,54.40
2018-05-13T04:03:11.800Z,54.88
2018-05-13T04:05:40.082Z,56.24
2018-05-13T04:11:45.347Z,57.24
2018-05-13T04:14:31.232Z,58.76
2018-05-13T04:16:59.512Z,57.61
2018-05-13T04:19:27.838Z,57.45
2018-05-13T04:21:56.113Z,57.65
2018-05-13T04:24:24.384Z,59.09
2018-05-13T04:26:52.753Z,59.46
2018-05-13T04:29:21.034Z,58.78
2018-05-13T04:31:49.315Z,59.29
2018-05-13T04:34:17.995Z,59.46
2018-05-13T04:36:46.269Z,59.15
2018-05-13T04:39:14.553Z,59.50
2018-05-13T04:41:42.910Z,59.03
2018-05-13T04:44:11.282Z,58.30
2018-05-13T04:46:40.007Z,58.10
2018-05-13T04:49:08.907Z,58.40
2018-05-13T04:51:37.320Z,59.07
2018-05-13T04:54:05.689Z,57.75
2018-05-13T04:56:34.813Z,57.87
2018-05-13T04:59:03.154Z,57.89
2018-05-13T05:01:32.631Z,58.98
2018-05-13T05:04:01.137Z,59.47
2018-05-13T05:06:29.591Z,58.48
2018-05-13T05:08:57.895Z,59.03
2018-05-13T05:11:26.894Z,58.61
2018-05-13T05:13:55.175Z,58.51
2018-05-13T05:16:23.468Z,58.86
2018-05-13T05:18:51.771Z,57.96
2018-05-13T05:21:20.036Z,58.16
2018-05-13T05:23:48.308Z,57.62
2018-05-13T05:26:17.341Z,57.60
2018-05-13T05:28:45.598Z,57.51
2018-05-13T05:31:13.908Z,56.91
2018-05-13T05:33:42.968Z,56.07
2018-05-13T05:36:11.219Z,55.62
2018-05-13T05:38:39.509Z,55.33
2018-05-13T05:41:10.746Z,54.34
2018-05-13T05:43:39.009Z,53.41
2018-05-13T05:46:07.287Z,51.97
2018-05-13T05:48:35.613Z,51.80
2018-05-13T05:51:03.946Z,51.31
2018-05-13T05:53:32.234Z,51.50
2018-05-13T05:56:01.266Z,51.26
2018-05-13T05:58:29.551Z,51.47
2018-05-13T06:00:57.913Z,50.93
2018-05-13T06:03:26.183Z,51.69
2018-05-13T06:05:55.219Z,51.57
2018-05-13T06:08:23.535Z,51.69
2018-05-13T06:10:51.837Z,51.26
2018-05-13T06:13:20.126Z,51.30
2018-05-13T06:15:48.384Z,50.93
2018-05-13T06:18:16.685Z,51.76
2018-05-13T06:20:44.963Z,51.46
2018-05-13T06:23:13.244Z,51.68
2018-05-13T06:25:41.535Z,51.24
2018-05-13T06:28:09.819Z,51.39
2018-05-13T06:30:39.016Z,51.51
2018-05-13T06:33:08.069Z,50.53
2018-05-13T06:35:36.558Z,50.74
2018-05-13T06:38:04.808Z,50.67
2018-05-13T06:40:33.845Z,51.17
2018-05-13T06:43:02.144Z,51.43
2018-05-13T06:45:30.431Z,51.79
2018-05-13T06:47:58.677Z,52.23
2018-05-13T06:50:27.786Z,51.78
2018-05-13T06:52:56.048Z,51.32
2018-05-13T06:55:24.311Z,49.84
2018-05-13T06:57:52.664Z,49.50
2018-05-13T07:00:20.954Z,49.23
2018-05-13T07:02:49.198Z,47.89
2018-05-13T07:05:17.492Z,46.59
2018-05-13T07:07:45.819Z,46.35
2018-05-13T07:10:14.107Z,47.25
2018-05-13T07:12:42.389Z,47.47
2018-05-13T07:15:10.647Z,47.69
2018-05-13T07:17:38.928Z,47.94
2018-05-13T07:20:07.240Z,48.76
2018-05-13T07:22:35.491Z,48.19
2018-05-13T07:25:03.888Z,49.28
2018-05-13T07:27:32.185Z,50.47
2018-05-13T07:30:00.464Z,50.50
2018-05-13T07:32:29.493Z,50.54
2018-05-13T07:34:57.793Z,51.17
2018-05-13T07:37:26.055Z,51.44
2018-05-13T07:39:54.387Z,51.84
2018-05-13T07:42:22.737Z,52.32
2018-05-13T07:44:50.998Z,52.80
2018-05-13T07:47:20.063Z,52.94
2018-05-13T07:49:48.433Z,53.19
2018-05-13T07:52:16.687Z,52.93
2018-05-13T07:54:45.728Z,52.92
2018-05-13T07:57:14.115Z,53.06
2018-05-13T07:59:42.394Z,53.15
2018-05-13T08:02:10.658Z,53.00
2018-05-13T08:04:38.931Z,53.15
2018-05-13T08:07:07.238Z,52.73
2018-05-13T08:09:35.511Z,53.21
2018-05-13T08:12:03.783Z,53.23
2018-05-13T08:14:32.062Z,53.43
2018-05-13T08:17:00.313Z,54.65
2018-05-13T08:19:29.355Z,54.85
2018-05-13T08:21:57.671Z,55.30
2018-05-13T08:24:25.983Z,55.48
2018-05-13T08:26:54.547Z,56.24
2018-05-13T08:29:23.834Z,56.77
2018-05-13T08:31:52.267Z,56.98
2018-05-13T08:34:20.811Z,57.86
2018-05-13T08:36:49.948Z,58.18
2018-05-13T08:39:18.230Z,59.22
2018-05-13T08:41:46.526Z,60.01
2018-05-13T08:44:14.796Z,62.02
2018-05-13T08:46:43.851Z,62.22
2018-05-13T08:49:12.156Z,64.04
2018-05-13T08:51:40.444Z,66.74
2018-05-13T08:54:08.689Z,66.74
2018-05-13T08:56:36.986Z,66.77
2018-05-13T08:59:05.242Z,66.88
2018-05-13T09:01:35.277Z,69.70
2018-05-13T09:04:03.547Z,69.85
2018-05-13T09:06:31.814Z,70.17
2018-05-13T09:09:00.090Z,71.36
2018-05-13T09:11:28.353Z,73.20
2018-05-13T09:13:57.394Z,74.03
2018-05-13T09:16:25.675Z,72.62
2018-05-13T09:18:54.013Z,74.03
2018-05-13T09:21:22.394Z,72.52
2018-05-13T09:23:52.196Z,73.68
2018-05-13T09:26:20.600Z,73.19
2018-05-13T09:28:48.945Z,73.73
2018-05-13T09:31:17.220Z,74.10
2018-05-13T09:33:46.277Z,74.39
2018-05-13T09:36:14.657Z,76.75
2018-05-13T09:38:42.940Z,74.46
2018-05-13T09:41:11.252Z,74.87
2018-05-13T09:43:39.531Z,74.55
2018-05-13T09:46:07.954Z,75.06
2018-05-13T09:48:36.231Z,75.55
2018-05-13T09:51:04.591Z,74.71
2018-05-13T09:53:33.620Z,76.65
2018-05-13T09:56:01.902Z,77.14
2018-05-13T09:58:30.186Z,76.99
2018-05-13T10:00:59.484Z,78.07
2018-05-13T10:03:29.061Z,78.87
2018-05-13T10:05:58.326Z,79.73
2018-05-13T10:08:38.135Z,79.45
2018-05-13T10:11:07.125Z,78.68
2018-05-13T10:13:35.414Z,79.70
2018-05-13T10:16:03.678Z,80.01
2018-05-13T10:18:31.992Z,78.87
2018-05-13T10:21:00.281Z,78.87
2018-05-13T10:23:28.561Z,80.14
2018-05-13T10:25:56.872Z,80.37
2018-05-13T10:28:25.166Z,81.19
2018-05-13T10:30:53.482Z,80.30
2018-05-13T10:33:21.791Z,80.54
2018-05-13T10:35:50.847Z,80.74
2018-05-13T10:38:19.124Z,81.52
2018-05-13T10:40:47.410Z,82.05
2018-05-13T10:43:15.883Z,81.37
2018-05-13T10:45:44.907Z,81.65
2018-05-13T10:48:13.186Z,81.42
2018-05-13T10:50:41.466Z,81.54
2018-05-13T10:53:10.510Z,82.28
2018-05-13T10:55:38.810Z,82.40
2018-05-13T10:58:07.098Z,81.92
2018-05-13T11:00:35.360Z,82.76
2018-05-13T11:03:03.640Z,83.02
2018-05-13T11:05:32.686Z,81.99
2018-05-13T11:08:00.955Z,82.24
2018-05-13T11:10:29.241Z,82.97
2018-05-13T11:12:57.556Z,83.52
2018-05-13T11:15:25.853Z,83.54
2018-05-13T11:17:58.629Z,82.49
2018-05-13T11:20:27.455Z,83.61
2018-05-13T11:22:57.645Z,84.64
2018-05-13T11:25:26.776Z,84.24
2018-05-13T11:27:55.502Z,83.93
2018-05-13T11:30:23.779Z,83.58
2018-05-13T11:32:52.193Z,84.05
2018-05-13T11:35:20.660Z,84.58
2018-05-13T11:37:48.939Z,83.33
2018-05-13T11:40:17.213Z,84.09
2018-05-13T11:42:46.281Z,84.45
2018-05-13T11:45:16.312Z,84.16
2018-05-13T11:47:44.584Z,84.11
2018-05-13T11:50:13.122Z,84.99
2018-05-13T11:52:41.397Z,84.68
2018-05-13T11:55:09.742Z,83.88
2018-05-13T11:57:38.133Z,84.32
2018-05-13T12:00:07.236Z,84.82
2018-05-13T12:02:35.520Z,84.40
2018-05-13T12:05:03.845Z,84.64
2018-05-13T12:07:32.118Z,85.11
2018-05-13T12:10:00.385Z,85.21
2018-05-13T12:12:29.618Z,84.90
2018-05-13T12:14:57.940Z,84.32
2018-05-13T12:17:26.252Z,84.94
2018-05-13T12:19:54.678Z,84.88
2018-05-13T12:22:23.738Z,84.76
2018-05-13T12:24:52.168Z,84.93
2018-05-13T12:27:21.229Z,84.77
2018-05-13T12:29:49.512Z,85.06
2018-05-13T12:32:17.765Z,84.27
2018-05-13T12:34:46.811Z,84.42
2018-05-13T12:37:15.088Z,83.99
2018-05-13T12:39:43.341Z,84.11
2018-05-13T12:42:12.406Z,84.69
2018-05-13T12:44:40.738Z,84.81
2018-05-13T12:47:08.992Z,85.00
2018-05-13T12:49:37.290Z,84.71
2018-05-13T12:52:05.557Z,84.55
2018-05-13T12:54:33.824Z,83.97
2018-05-13T12:57:02.143Z,84.56
2018-05-13T12:59:30.414Z,84.77
2018-05-13T13:01:58.689Z,84.83
2018-05-13T13:04:27.048Z,84.83
2018-05-13T13:06:55.388Z,84.57
2018-05-13T13:09:23.724Z,85.18
2018-05-13T13:11:52.105Z,85.23
2018-05-13T13:14:20.465Z,85.03
2018-05-13T13:16:48.846Z,85.29
2018-05-13T13:19:17.133Z,85.64
2018-05-13T13:21:45.383Z,85.32
2018-05-13T13:24:13.738Z,85.57
2018-05-13T13:26:42.039Z,84.73
2018-05-13T13:29:10.431Z,85.04
2018-05-13T13:31:38.684Z,84.87
2018-05-13T13:34:06.982Z,84.77
2018-05-13T13:36:35.367Z,84.08
2018-05-13T13:39:04.315Z,84.46
2018-05-13T13:41:32.580Z,84.88
2018-05-13T13:44:00.873Z,84.98
2018-05-13T13:46:29.126Z,84.93
2018-05-13T13:48:57.439Z,84.64
2018-05-13T13:51:25.732Z,84.61
2018-05-13T13:53:54.942Z,85.29
2018-05-13T13:56:23.238Z,84.81
2018-05-13T13:58:51.748Z,85.25
2018-05-13T14:01:20.291Z,84.52
2018-05-13T14:03:48.641Z,85.28
2018-05-13T14:06:16.932Z,85.14
2018-05-13T14:08:45.217Z,85.08
2018-05-13T14:11:13.787Z,85.27
2018-05-13T14:13:42.113Z,85.11
2018-05-13T14:16:11.397Z,85.09
2018-05-13T14:18:39.701Z,84.88
2018-05-13T14:21:07.980Z,85.14
2018-05-13T14:23:36.303Z,84.78
2018-05-13T14:26:05.412Z,84.66
2018-05-13T14:28:33.682Z,84.39
2018-05-13T14:31:01.958Z,84.03
2018-05-13T14:33:30.239Z,83.80
2018-05-13T14:35:58.517Z,83.92
2018-05-13T14:38:26.811Z,83.88
2018-05-13T14:40:56.013Z,84.60
2018-05-13T14:43:24.235Z,84.35
2018-05-13T14:45:52.836Z,84.62
2018-05-13T14:48:21.205Z,84.40
2018-05-13T14:50:49.444Z,84.92
2018-05-13T14:53:17.807Z,84.96
2018-05-13T14:55:46.315Z,84.67
2018-05-13T14:58:14.772Z,84.45
2018-05-13T15:00:43.801Z,84.50
2018-05-13T15:03:12.063Z,85.00
2018-05-13T15:05:40.330Z,85.11
2018-05-13T15:08:08.620Z,85.15
2018-05-13T15:10:36.934Z,84.33
2018-05-13T15:13:05.198Z,84.21
2018-05-13T15:15:33.478Z,84.90
2018-05-13T15:18:01.775Z,85.09
2018-05-13T15:20:30.848Z,85.09
2018-05-13T15:22:59.148Z,85.44
2018-05-13T15:25:27.446Z,85.57
2018-05-13T15:27:55.706Z,85.89
2018-05-13T15:30:24.749Z,85.58
2018-05-13T15:32:53.730Z,85.67
2018-05-13T15:35:22.053Z,85.26
2018-05-13T15:37:50.380Z,85.05
2018-05-13T15:40:19.423Z,85.47
2018-05-13T15:42:47.732Z,85.58
2018-05-13T15:45:16.065Z,85.76
2018-05-13T15:47:45.099Z,85.57
2018-05-13T15:50:13.378Z,85.75
2018-05-13T15:52:42.450Z,85.26
2018-05-13T15:55:10.791Z,85.27
2018-05-13T15:57:39.010Z,85.15
2018-05-13T16:00:07.376Z,85.20
2018-05-13T16:02:35.667Z,85.44
2018-05-13T16:05:03.951Z,85.25
2018-05-13T16:07:32.347Z,85.69
2018-05-13T16:10:00.854Z,85.37
2018-05-13T16:12:31.485Z,84.82
2018-05-13T16:14:59.883Z,84.97
2018-05-13T16:17:28.284Z,85.18
2018-05-13T16:19:56.905Z,85.33
2018-05-13T16:22:25.188Z,84.65
2018-05-13T16:24:53.942Z,84.77
2018-05-13T16:27:23.280Z,84.69
2018-05-13T16:29:51.573Z,85.11
2018-05-13T16:32:22.106Z,85.53
2018-05-13T16:34:50.406Z,85.33
2018-05-13T16:37:20.724Z,84.83
2018-05-13T16:39:49.879Z,85.51
2018-05-13T16:42:18.207Z,85.54
2018-05-13T16:44:46.537Z,85.28
2018-05-13T16:47:14.918Z,85.26
2018-05-13T16:49:43.204Z,85.18
2018-05-13T16:52:11.492Z,85.06
2018-05-13T16:54:40.522Z,85.40
2018-05-13T16:57:08.797Z,85.19
2018-05-13T16:59:37.844Z,84.59
2018-05-13T17:02:06.115Z,84.94
2018-05-13T17:04:34.400Z,85.31
2018-05-13T17:07:02.676Z,85.02
2018-05-13T17:09:30.972Z,84.38
2018-05-13T17:11:59.268Z,84.57
2018-05-13T17:14:30.116Z,84.34
2018-05-13T17:17:02.233Z,84.36
2018-05-13T17:19:34.407Z,85.16
2018-05-13T17:22:03.831Z,85.18
2018-05-13T17:24:32.478Z,85.16
2018-05-13T17:27:01.533Z,84.89
2018-05-13T17:29:31.514Z,85.30
2018-05-13T17:31:59.828Z,84.65
2018-05-13T17:34:28.118Z,83.45
2018-05-13T17:36:56.651Z,78.28
2018-05-13T17:39:24.992Z,75.78
2018-05-13T17:41:53.218Z,73.42
2018-05-13T17:44:21.515Z,73.57
2018-05-13T17:46:49.769Z,75.69
2018-05-13T17:49:18.039Z,73.05
2018-05-13T17:51:47.117Z,76.95
2018-05-13T17:54:15.456Z,78.75
2018-05-13T17:56:43.729Z,80.50
2018-05-13T17:59:12.855Z,81.32
2018-05-13T18:01:41.111Z,81.89
2018-05-13T18:04:09.439Z,82.22
2018-05-13T18:06:38.528Z,82.98
2018-05-13T18:09:07.559Z,82.52
2018-05-13T18:11:36.047Z,83.41
2018-05-13T18:14:04.340Z,83.19
2018-05-13T18:16:32.732Z,83.76
2018-05-13T18:19:01.012Z,83.59
2018-05-13T18:21:29.313Z,83.19
2018-05-13T18:23:58.424Z,83.43
2018-05-13T18:26:26.729Z,83.63
2018-05-13T18:28:55.106Z,83.93
2018-05-13T18:31:23.398Z,84.22
2018-05-13T18:33:51.678Z,83.31
2018-05-13T18:36:21.197Z,83.98
2018-05-13T18:38:50.714Z,84.60
2018-05-13T18:41:19.753Z,84.63
2018-05-13T18:43:48.146Z,84.40
2018-05-13T18:46:16.406Z,84.01
2018-05-13T18:48:45.468Z,84.18
2018-05-13T18:51:13.866Z,84.35
2018-05-13T18:53:42.204Z,83.61
2018-05-13T18:56:11.227Z,83.82
2018-05-13T18:58:39.526Z,84.24
2018-05-13T19:01:07.798Z,84.24
2018-05-13T19:03:36.831Z,84.06
2018-05-13T19:06:05.094Z,84.13
2018-05-13T19:08:33.401Z,84.27
2018-05-13T19:11:01.657Z,84.69
2018-05-13T19:13:30.719Z,84.82
2018-05-13T19:15:59.891Z,84.68
2018-05-13T19:18:28.183Z,84.85
2018-05-13T19:20:56.471Z,85.05
2018-05-13T19:23:25.515Z,84.56
2018-05-13T19:25:53.846Z,84.68
2018-05-13T19:28:22.913Z,84.84
2018-05-13T19:30:52.314Z,84.75
2018-05-13T19:33:20.494Z,84.60
2018-05-13T19:35:48.777Z,84.78
2018-05-13T19:38:17.036Z,84.70
2018-05-13T19:40:46.185Z,84.55
2018-05-13T19:43:14.491Z,84.80
2018-05-13T19:45:42.773Z,84.43
2018-05-13T19:48:11.857Z,84.72
2018-05-13T19:50:40.980Z,84.84
2018-05-13T19:53:09.227Z,85.04
2018-05-13T19:55:37.564Z,84.86
2018-05-13T19:58:05.850Z,84.57
2018-05-13T20:00:34.125Z,84.90
2018-05-13T20:03:03.228Z,84.72
2018-05-13T20:05:31.633Z,84.80
2018-05-13T20:07:59.929Z,84.92
2018-05-13T20:10:28.293Z,84.87
2018-05-13T20:12:56.563Z,84.29
2018-05-13T20:15:24.840Z,84.45
2018-05-13T20:17:53.175Z,84.75
2018-05-13T20:20:22.535Z,84.41
2018-05-13T20:26:01.943Z,84.37
2018-05-13T20:28:30.290Z,84.62
2018-05-13T20:30:58.582Z,84.58
2018-05-13T20:33:27.647Z,84.32
2018-05-13T20:35:56.887Z,84.59
2018-05-13T20:38:25.115Z,85.21
2018-05-13T20:40:53.532Z,85.07
2018-05-13T20:43:21.826Z,84.79
2018-05-13T20:45:50.194Z,84.06
2018-05-13T20:48:19.007Z,84.27
2018-05-13T20:50:47.339Z,84.48
2018-05-13T20:53:16.472Z,85.00
2018-05-13T20:55:45.842Z,84.98
2018-05-13T20:58:14.116Z,85.06
2018-05-13T21:00:43.180Z,84.31
2018-05-13T21:03:11.756Z,84.89
2018-05-13T21:05:40.492Z,84.92
2018-05-13T21:08:09.600Z,84.80
2018-05-13T21:10:37.874Z,84.64
2018-05-13T21:13:06.173Z,84.38
2018-05-13T21:15:34.468Z,84.52
2018-05-13T21:18:02.787Z,84.02
2018-05-13T21:20:31.085Z,84.57
2018-05-13T21:22:59.378Z,84.28
2018-05-13T21:25:27.676Z,84.45
2018-05-13T21:27:55.989Z,84.84
2018-05-13T21:30:24.347Z,84.57
2018-05-13T21:32:52.825Z,84.61
2018-05-13T21:35:23.962Z,84.45
2018-05-13T21:37:52.461Z,84.55
2018-05-13T21:40:21.488Z,84.66
2018-05-13T21:42:49.769Z,84.36
2018-05-13T21:45:18.103Z,84.60
2018-05-13T21:47:46.387Z,84.73
2018-05-13T21:50:14.673Z,84.40
2018-05-13T21:52:42.992Z,84.68
2018-05-13T21:55:12.036Z,84.69
2018-05-13T21:57:40.307Z,84.87
2018-05-13T22:00:09.372Z,85.04
2018-05-13T22:02:38.027Z,85.34
2018-05-13T22:05:06.360Z,85.04
2018-05-13T22:07:35.691Z,85.58
2018-05-13T22:10:04.688Z,85.60
2018-05-13T22:12:33.963Z,86.04
2018-05-13T22:15:02.561Z,85.80
2018-05-13T22:17:30.955Z,86.35
2018-05-13T22:20:01.249Z,86.67
2018-05-13T22:22:30.411Z,86.59
2018-05-13T22:24:58.696Z,86.80
2018-05-13T22:27:28.204Z,86.86
2018-05-13T22:30:00.224Z,86.88
2018-05-13T22:32:29.156Z,86.73
2018-05-13T22:34:57.541Z,87.25
2018-05-13T22:37:25.818Z,87.30
2018-05-13T22:39:55.402Z,87.22
2018-05-13T22:42:23.786Z,87.23
2018-05-13T22:44:52.144Z,87.49
2018-05-13T22:47:21.188Z,87.49
2018-05-13T22:49:50.035Z,87.49
2018-05-13T22:52:19.214Z,87.57
2018-05-13T22:54:47.493Z,87.56
2018-05-13T22:57:16.080Z,87.39
2018-05-13T22:59:44.477Z,87.50
2018-05-13T23:02:12.769Z,87.19
2018-05-13T23:04:41.342Z,87.27
2018-05-13T23:07:12.765Z,87.42
2018-05-13T23:09:41.836Z,87.74
2018-05-13T23:12:10.112Z,87.38
2018-05-13T23:14:41.139Z,87.33
2018-05-13T23:17:11.619Z,87.49
2018-05-13T23:19:40.744Z,87.65
2018-05-13T23:22:09.046Z,87.95
2018-05-13T23:24:38.301Z,87.67
2018-05-13T23:27:06.624Z,87.73
2018-05-13T23:29:36.135Z,88.01
2018-05-13T23:32:06.207Z,87.79
2018-05-13T23:34:34.974Z,87.89
2018-05-13T23:37:05.013Z,87.85
2018-05-13T23:39:33.379Z,88.10
2018-05-13T23:42:02.105Z,87.98
2018-05-13T23:44:30.806Z,87.80
2018-05-13T23:46:59.377Z,88.09
2018-05-13T23:49:29.081Z,87.99
2018-05-13T23:51:59.088Z,88.16
2018-05-13T23:54:29.646Z,87.98
2018-05-13T23:56:59.409Z,88.20
2018-05-13T23:59:27.741Z,88.10
